sensor_id;sensor_type;location;lat;lon;timestamp;temperature;humidity
70928;SHT31;58587;53.034;18.576;2022-07-12T06:09:13;16.04;85.65
70928;SHT31;58587;53.034;18.576;2022-07-12T06:11:38;16.15;84.96
70928;SHT31;58587;53.034;18.576;2022-07-12T06:14:03;15.96;84.38
70928;SHT31;58587;53.034;18.576;2022-07-12T06:16:29;15.96;84.21
70928;SHT31;58587;53.034;18.576;2022-07-12T06:18:55;16.09;84.30
70928;SHT31;58587;53.034;18.576;2022-07-12T06:21:20;16.15;83.86
70928;SHT31;58587;53.034;18.576;2022-07-12T06:23:46;16.22;83.43
70928;SHT31;58587;53.034;18.576;2022-07-12T06:26:11;16.19;83.43
70928;SHT31;58587;53.034;18.576;2022-07-12T06:28:36;16.29;83.62
70928;SHT31;58587;53.034;18.576;2022-07-12T06:31:02;16.33;83.16
70928;SHT31;58587;53.034;18.576;2022-07-12T06:33:27;16.39;83.03
70928;SHT31;58587;53.034;18.576;2022-07-12T06:35:53;16.50;82.99
70928;SHT31;58587;53.034;18.576;2022-07-12T06:38:18;16.60;82.96
70928;SHT31;58587;53.034;18.576;2022-07-12T06:40:44;16.67;82.70
70928;SHT31;58587;53.034;18.576;2022-07-12T06:43:10;16.80;82.43
70928;SHT31;58587;53.034;18.576;2022-07-12T06:45:36;16.84;81.54
70928;SHT31;58587;53.034;18.576;2022-07-12T06:48:01;16.94;80.70
70928;SHT31;58587;53.034;18.576;2022-07-12T06:50:27;17.04;80.58
70928;SHT31;58587;53.034;18.576;2022-07-12T06:52:52;17.06;78.76
70928;SHT31;58587;53.034;18.576;2022-07-12T06:55:18;17.11;78.30
70928;SHT31;58587;53.034;18.576;2022-07-12T06:57:43;17.17;77.53
70928;SHT31;58587;53.034;18.576;2022-07-12T07:00:09;17.24;77.69
70928;SHT31;58587;53.034;18.576;2022-07-12T07:02:34;17.27;77.55
70928;SHT31;58587;53.034;18.576;2022-07-12T07:05:00;17.36;77.72
70928;SHT31;58587;53.034;18.576;2022-07-12T07:07:25;17.36;77.04
70928;SHT31;58587;53.034;18.576;2022-07-12T07:09:50;17.46;75.93
70928;SHT31;58587;53.034;18.576;2022-07-12T07:12:16;17.49;77.09
70928;SHT31;58587;53.034;18.576;2022-07-12T07:14:41;17.54;76.63
70928;SHT31;58587;53.034;18.576;2022-07-12T07:17:07;17.54;75.23
70928;SHT31;58587;53.034;18.576;2022-07-12T07:19:33;17.62;74.97
70928;SHT31;58587;53.034;18.576;2022-07-12T07:21:58;17.68;73.06
70928;SHT31;58587;53.034;18.576;2022-07-12T07:24:24;17.68;72.26
70928;SHT31;58587;53.034;18.576;2022-07-12T07:26:50;17.71;74.24
70928;SHT31;58587;53.034;18.576;2022-07-12T07:29:16;17.85;73.97
70928;SHT31;58587;53.034;18.576;2022-07-12T07:32:00;17.97;74.45
70928;SHT31;58587;53.034;18.576;2022-07-12T07:34:25;18.14;72.68
70928;SHT31;58587;53.034;18.576;2022-07-12T07:36:51;18.17;70.70
70928;SHT31;58587;53.034;18.576;2022-07-12T07:39:17;18.25;70.69
70928;SHT31;58587;53.034;18.576;2022-07-12T07:41:42;18.32;69.16
70928;SHT31;58587;53.034;18.576;2022-07-12T07:44:08;18.34;71.05
70928;SHT31;58587;53.034;18.576;2022-07-12T07:46:33;18.33;68.45
70928;SHT31;58587;53.034;18.576;2022-07-12T07:48:59;18.44;69.64
70928;SHT31;58587;53.034;18.576;2022-07-12T07:51:24;18.41;67.62
70928;SHT31;58587;53.034;18.576;2022-07-12T07:53:49;18.50;69.89
70928;SHT31;58587;53.034;18.576;2022-07-12T07:56:15;18.60;69.45
70928;SHT31;58587;53.034;18.576;2022-07-12T07:58:40;18.71;69.55
70928;SHT31;58587;53.034;18.576;2022-07-12T08:01:06;18.84;68.20
70928;SHT31;58587;53.034;18.576;2022-07-12T08:03:31;18.81;68.13
70928;SHT31;58587;53.034;18.576;2022-07-12T08:05:57;18.88;66.28
70928;SHT31;58587;53.034;18.576;2022-07-12T08:08:24;18.97;66.88
70928;SHT31;58587;53.034;18.576;2022-07-12T08:10:50;18.98;63.23
70928;SHT31;58587;53.034;18.576;2022-07-12T08:13:16;19.07;66.03
70928;SHT31;58587;53.034;18.576;2022-07-12T08:15:42;19.22;64.65
70928;SHT31;58587;53.034;18.576;2022-07-12T08:18:07;19.32;65.28
70928;SHT31;58587;53.034;18.576;2022-07-12T08:20:33;19.31;64.58
70928;SHT31;58587;53.034;18.576;2022-07-12T08:22:59;19.43;63.92
70928;SHT31;58587;53.034;18.576;2022-07-12T08:25:24;19.49;63.18
70928;SHT31;58587;53.034;18.576;2022-07-12T08:27:50;19.62;64.34
70928;SHT31;58587;53.034;18.576;2022-07-12T08:30:15;19.76;62.33
70928;SHT31;58587;53.034;18.576;2022-07-12T08:32:45;19.80;59.24
70928;SHT31;58587;53.034;18.576;2022-07-12T08:35:11;19.87;60.71
70928;SHT31;58587;53.034;18.576;2022-07-12T13:44:21;27.33;39.08
70928;SHT31;58587;53.034;18.576;2022-07-12T13:46:47;27.30;37.19
70928;SHT31;58587;53.034;18.576;2022-07-12T13:49:12;26.78;38.13
70928;SHT31;58587;53.034;18.576;2022-07-12T13:51:37;27.17;36.98
70928;SHT31;58587;53.034;18.576;2022-07-12T13:54:03;27.85;36.59
70928;SHT31;58587;53.034;18.576;2022-07-12T13:56:28;28.45;34.52
70928;SHT31;58587;53.034;18.576;2022-07-12T13:58:54;28.73;33.92
70928;SHT31;58587;53.034;18.576;2022-07-12T14:01:19;27.74;34.06
70928;SHT31;58587;53.034;18.576;2022-07-12T14:03:45;28.20;33.99
70928;SHT31;58587;53.034;18.576;2022-07-12T14:06:10;28.79;32.80
70928;SHT31;58587;53.034;18.576;2022-07-12T14:08:36;29.18;32.73
70928;SHT31;58587;53.034;18.576;2022-07-12T14:11:01;28.76;32.64
70928;SHT31;58587;53.034;18.576;2022-07-12T14:13:26;29.58;32.44
70928;SHT31;58587;53.034;18.576;2022-07-12T14:15:52;29.63;31.90
70928;SHT31;58587;53.034;18.576;2022-07-12T14:18:17;29.78;30.36
70928;SHT31;58587;53.034;18.576;2022-07-12T14:20:44;29.82;30.08
70928;SHT31;58587;53.034;18.576;2022-07-12T14:23:09;29.81;30.84
70928;SHT31;58587;53.034;18.576;2022-07-12T14:25:38;30.13;30.55
70928;SHT31;58587;53.034;18.576;2022-07-12T14:28:03;29.86;30.71
70928;SHT31;58587;53.034;18.576;2022-07-12T14:30:29;30.23;29.90
70928;SHT31;58587;53.034;18.576;2022-07-12T14:32:54;30.74;29.99
70928;SHT31;58587;53.034;18.576;2022-07-12T14:35:19;30.66;29.74
70928;SHT31;58587;53.034;18.576;2022-07-12T14:37:45;31.08;29.18
70928;SHT31;58587;53.034;18.576;2022-07-12T14:40:11;31.76;27.99
70928;SHT31;58587;53.034;18.576;2022-07-12T14:42:38;31.55;27.58
70928;SHT31;58587;53.034;18.576;2022-07-12T14:45:04;31.45;28.31
70928;SHT31;58587;53.034;18.576;2022-07-12T14:47:31;31.07;28.95
70928;SHT31;58587;53.034;18.576;2022-07-12T14:49:56;31.34;27.66
70928;SHT31;58587;53.034;18.576;2022-07-12T14:52:22;30.17;29.62
70928;SHT31;58587;53.034;18.576;2022-07-12T14:54:47;29.18;30.92
70928;SHT31;58587;53.034;18.576;2022-07-12T14:57:13;29.21;30.84
70928;SHT31;58587;53.034;18.576;2022-07-12T14:59:38;29.61;30.52
70928;SHT31;58587;53.034;18.576;2022-07-12T15:02:04;29.79;30.19
70928;SHT31;58587;53.034;18.576;2022-07-12T15:04:29;29.79;29.82
70928;SHT31;58587;53.034;18.576;2022-07-12T15:06:55;29.78;29.70
70928;SHT31;58587;53.034;18.576;2022-07-12T15:09:20;30.19;29.96
70928;SHT31;58587;53.034;18.576;2022-07-12T15:11:46;30.10;29.59
70928;SHT31;58587;53.034;18.576;2022-07-12T15:14:11;30.50;29.16
70928;SHT31;58587;53.034;18.576;2022-07-12T15:16:37;30.23;29.92
70928;SHT31;58587;53.034;18.576;2022-07-12T15:19:02;30.54;28.94
70928;SHT31;58587;53.034;18.576;2022-07-12T15:21:28;30.37;28.18
70928;SHT31;58587;53.034;18.576;2022-07-12T15:23:53;30.73;28.01
70928;SHT31;58587;53.034;18.576;2022-07-12T15:26:19;30.19;28.54
70928;SHT31;58587;53.034;18.576;2022-07-12T15:29:02;30.80;28.27
70928;SHT31;58587;53.034;18.576;2022-07-12T15:31:29;30.36;28.33
70928;SHT31;58587;53.034;18.576;2022-07-12T15:33:55;29.63;27.78
70928;SHT31;58587;53.034;18.576;2022-07-12T15:36:20;30.34;27.50
70928;SHT31;58587;53.034;18.576;2022-07-12T15:38:46;30.03;28.27
70928;SHT31;58587;53.034;18.576;2022-07-12T15:41:12;30.26;28.38
70928;SHT31;58587;53.034;18.576;2022-07-12T15:43:38;30.08;28.30
70928;SHT31;58587;53.034;18.576;2022-07-12T15:46:08;29.95;28.36
70928;SHT31;58587;53.034;18.576;2022-07-12T15:48:35;29.78;28.72
70928;SHT31;58587;53.034;18.576;2022-07-12T15:51:00;30.71;28.44
70928;SHT31;58587;53.034;18.576;2022-07-12T15:53:26;30.60;28.78
70928;SHT31;58587;53.034;18.576;2022-07-12T15:56:07;29.20;29.66
70928;SHT31;58587;53.034;18.576;2022-07-12T15:58:39;29.35;29.75
70928;SHT31;58587;53.034;18.576;2022-07-12T16:01:07;29.20;30.16
70928;SHT31;58587;53.034;18.576;2022-07-12T16:03:33;29.12;29.91
70928;SHT31;58587;53.034;18.576;2022-07-12T16:06:01;28.49;30.06
70928;SHT31;58587;53.034;18.576;2022-07-12T16:08:27;28.91;29.56
70928;SHT31;58587;53.034;18.576;2022-07-12T16:10:54;28.15;29.77
70928;SHT31;58587;53.034;18.576;2022-07-12T16:13:20;27.88;30.67
70928;SHT31;58587;53.034;18.576;2022-07-12T16:15:45;27.91;30.56
70928;SHT31;58587;53.034;18.576;2022-07-12T16:18:11;27.58;29.93
70928;SHT31;58587;53.034;18.576;2022-07-12T16:20:37;27.29;31.29
70928;SHT31;58587;53.034;18.576;2022-07-12T16:23:03;26.93;31.96
70928;SHT31;58587;53.034;18.576;2022-07-12T16:25:31;26.40;32.50
70928;SHT31;58587;53.034;18.576;2022-07-12T16:27:56;26.56;32.59
70928;SHT31;58587;53.034;18.576;2022-07-12T16:30:22;26.26;32.66
70928;SHT31;58587;53.034;18.576;2022-07-12T16:32:47;26.17;32.56
70928;SHT31;58587;53.034;18.576;2022-07-12T16:35:13;25.71;33.32
70928;SHT31;58587;53.034;18.576;2022-07-12T16:37:38;25.60;32.96
70928;SHT31;58587;53.034;18.576;2022-07-12T16:40:06;25.16;34.10
70928;SHT31;58587;53.034;18.576;2022-07-12T16:42:31;25.00;34.72
70928;SHT31;58587;53.034;18.576;2022-07-12T16:44:57;24.86;35.18
70928;SHT31;58587;53.034;18.576;2022-07-12T16:47:22;24.62;35.10
70928;SHT31;58587;53.034;18.576;2022-07-12T16:49:47;24.66;35.44
70928;SHT31;58587;53.034;18.576;2022-07-12T16:52:13;24.47;35.88
70928;SHT31;58587;53.034;18.576;2022-07-12T16:54:38;24.29;35.72
70928;SHT31;58587;53.034;18.576;2022-07-12T16:57:03;23.97;36.21
70928;SHT31;58587;53.034;18.576;2022-07-12T16:59:29;23.90;36.72
70928;SHT31;58587;53.034;18.576;2022-07-12T17:01:56;23.66;37.34
70928;SHT31;58587;53.034;18.576;2022-07-12T17:04:21;23.80;37.73
70928;SHT31;58587;53.034;18.576;2022-07-12T17:06:47;23.59;37.56
70928;SHT31;58587;53.034;18.576;2022-07-12T17:09:12;23.46;38.21
70928;SHT31;58587;53.034;18.576;2022-07-12T17:11:38;23.42;38.03
70928;SHT31;58587;53.034;18.576;2022-07-12T17:14:03;23.37;38.32
70928;SHT31;58587;53.034;18.576;2022-07-12T17:16:29;23.20;38.41
70928;SHT31;58587;53.034;18.576;2022-07-12T17:18:55;23.27;38.52
70928;SHT31;58587;53.034;18.576;2022-07-12T17:21:28;23.09;38.97
70928;SHT31;58587;53.034;18.576;2022-07-12T17:23:53;23.06;39.03
70928;SHT31;58587;53.034;18.576;2022-07-12T17:26:19;23.00;39.66
70928;SHT31;58587;53.034;18.576;2022-07-12T17:28:44;22.96;40.24
70928;SHT31;58587;53.034;18.576;2022-07-12T17:31:09;22.92;40.05
70928;SHT31;58587;53.034;18.576;2022-07-12T17:33:35;22.86;40.82
70928;SHT31;58587;53.034;18.576;2022-07-12T17:36:00;22.73;40.54
70928;SHT31;58587;53.034;18.576;2022-07-12T17:38:26;22.65;40.93
70928;SHT31;58587;53.034;18.576;2022-07-12T17:40:53;22.59;41.22
70928;SHT31;58587;53.034;18.576;2022-07-12T17:43:18;22.55;40.99
70928;SHT31;58587;53.034;18.576;2022-07-12T17:45:44;22.51;40.95
70928;SHT31;58587;53.034;18.576;2022-07-12T17:48:09;22.52;40.69
70928;SHT31;58587;53.034;18.576;2022-07-12T17:50:35;22.48;40.46
70928;SHT31;58587;53.034;18.576;2022-07-12T17:53:01;22.38;40.18
70928;SHT31;58587;53.034;18.576;2022-07-12T17:55:27;22.34;40.70
70928;SHT31;58587;53.034;18.576;2022-07-12T17:57:52;22.22;40.99
70928;SHT31;58587;53.034;18.576;2022-07-12T18:00:36;22.04;41.06
70928;SHT31;58587;53.034;18.576;2022-07-12T18:03:02;21.98;41.59
70928;SHT31;58587;53.034;18.576;2022-07-12T18:05:28;21.98;41.87
70928;SHT31;58587;53.034;18.576;2022-07-12T18:07:54;21.94;42.08
70928;SHT31;58587;53.034;18.576;2022-07-12T18:10:19;21.89;42.34
70928;SHT31;58587;53.034;18.576;2022-07-12T18:12:45;21.80;43.07
70928;SHT31;58587;53.034;18.576;2022-07-12T18:15:29;21.76;43.44
70928;SHT31;58587;53.034;18.576;2022-07-12T18:17:55;21.62;43.61
70928;SHT31;58587;53.034;18.576;2022-07-12T18:20:32;21.62;43.76
70928;SHT31;58587;53.034;18.576;2022-07-12T18:22:58;21.54;44.15
70928;SHT31;58587;53.034;18.576;2022-07-12T18:25:23;21.47;44.18
70928;SHT31;58587;53.034;18.576;2022-07-12T18:27:49;21.39;44.77
70928;SHT31;58587;53.034;18.576;2022-07-12T18:30:15;21.25;44.78
70928;SHT31;58587;53.034;18.576;2022-07-12T18:32:40;21.19;45.05
70928;SHT31;58587;53.034;18.576;2022-07-12T18:35:06;21.22;45.06
70928;SHT31;58587;53.034;18.576;2022-07-12T18:37:32;21.22;45.11
70928;SHT31;58587;53.034;18.576;2022-07-12T18:39:58;21.13;45.50
70928;SHT31;58587;53.034;18.576;2022-07-12T18:42:23;21.03;45.75
70928;SHT31;58587;53.034;18.576;2022-07-12T18:44:49;21.00;45.85
70928;SHT31;58587;53.034;18.576;2022-07-12T18:47:14;20.98;46.06
70928;SHT31;58587;53.034;18.576;2022-07-12T18:49:40;20.92;46.31
70928;SHT31;58587;53.034;18.576;2022-07-12T18:52:05;20.81;46.70
70928;SHT31;58587;53.034;18.576;2022-07-12T18:54:31;20.71;47.02
70928;SHT31;58587;53.034;18.576;2022-07-12T18:56:56;20.64;47.25
70928;SHT31;58587;53.034;18.576;2022-07-12T18:59:22;20.63;47.09
70928;SHT31;58587;53.034;18.576;2022-07-12T19:01:48;20.61;47.25
70928;SHT31;58587;53.034;18.576;2022-07-12T19:04:13;20.54;47.41
70928;SHT31;58587;53.034;18.576;2022-07-12T19:06:39;20.41;47.70
70928;SHT31;58587;53.034;18.576;2022-07-12T19:09:04;20.40;48.34
70928;SHT31;58587;53.034;18.576;2022-07-12T19:11:30;20.36;48.29
70928;SHT31;58587;53.034;18.576;2022-07-12T19:13:55;20.26;48.71
70928;SHT31;58587;53.034;18.576;2022-07-12T19:16:20;20.28;48.72
70928;SHT31;58587;53.034;18.576;2022-07-12T19:18:46;20.21;49.03
70928;SHT31;58587;53.034;18.576;2022-07-12T19:21:11;20.13;49.71
70928;SHT31;58587;53.034;18.576;2022-07-12T19:23:37;20.01;49.57
70928;SHT31;58587;53.034;18.576;2022-07-12T19:26:02;19.90;49.97
70928;SHT31;58587;53.034;18.576;2022-07-12T19:28:27;19.94;49.88
70928;SHT31;58587;53.034;18.576;2022-07-12T19:30:53;19.89;50.05
70928;SHT31;58587;53.034;18.576;2022-07-12T19:33:18;19.86;49.78
70928;SHT31;58587;53.034;18.576;2022-07-12T19:35:44;19.80;50.26
70928;SHT31;58587;53.034;18.576;2022-07-12T19:38:09;19.66;50.14
70928;SHT31;58587;53.034;18.576;2022-07-12T19:40:35;19.65;50.19
70928;SHT31;58587;53.034;18.576;2022-07-12T19:43:00;19.62;50.63
70928;SHT31;58587;53.034;18.576;2022-07-12T19:45:26;19.63;50.34
70928;SHT31;58587;53.034;18.576;2022-07-12T19:47:51;19.59;51.09
70928;SHT31;58587;53.034;18.576;2022-07-12T19:50:17;19.53;50.84
70928;SHT31;58587;53.034;18.576;2022-07-12T19:52:43;19.45;50.94
70928;SHT31;58587;53.034;18.576;2022-07-12T19:55:08;19.42;51.35
70928;SHT31;58587;53.034;18.576;2022-07-12T19:57:34;19.41;51.32
70928;SHT31;58587;53.034;18.576;2022-07-12T20:00:00;19.28;52.14
70928;SHT31;58587;53.034;18.576;2022-07-12T20:02:26;19.22;52.08
70928;SHT31;58587;53.034;18.576;2022-07-12T20:04:52;19.19;52.62
70928;SHT31;58587;53.034;18.576;2022-07-12T20:07:18;19.15;52.50
70928;SHT31;58587;53.034;18.576;2022-07-12T20:09:43;19.10;52.76
70928;SHT31;58587;53.034;18.576;2022-07-12T20:12:09;19.04;52.90
70928;SHT31;58587;53.034;18.576;2022-07-12T20:14:35;18.97;53.39
70928;SHT31;58587;53.034;18.576;2022-07-12T20:17:00;18.92;54.09
70928;SHT31;58587;53.034;18.576;2022-07-12T20:19:26;18.88;53.47
70928;SHT31;58587;53.034;18.576;2022-07-12T20:21:55;18.85;54.02
70928;SHT31;58587;53.034;18.576;2022-07-12T20:24:22;18.87;53.81
70928;SHT31;58587;53.034;18.576;2022-07-12T20:26:48;18.81;54.24
70928;SHT31;58587;53.034;18.576;2022-07-12T20:29:13;18.74;54.17
70928;SHT31;58587;53.034;18.576;2022-07-12T20:31:39;18.72;54.01
70928;SHT31;58587;53.034;18.576;2022-07-12T20:34:04;18.61;55.55
70928;SHT31;58587;53.034;18.576;2022-07-12T20:36:48;18.61;54.72
70928;SHT31;58587;53.034;18.576;2022-07-12T20:39:13;18.50;55.46
70928;SHT31;58587;53.034;18.576;2022-07-12T20:41:39;18.50;55.23
70928;SHT31;58587;53.034;18.576;2022-07-12T20:44:04;18.43;56.04
70928;SHT31;58587;53.034;18.576;2022-07-12T20:46:31;18.41;56.19
70928;SHT31;58587;53.034;18.576;2022-07-12T20:48:56;18.38;56.57
70928;SHT31;58587;53.034;18.576;2022-07-12T20:51:21;18.36;56.65
70928;SHT31;58587;53.034;18.576;2022-07-12T20:53:49;18.37;56.59
70928;SHT31;58587;53.034;18.576;2022-07-12T20:56:14;18.36;56.98
70928;SHT31;58587;53.034;18.576;2022-07-12T20:58:40;18.33;57.30
70928;SHT31;58587;53.034;18.576;2022-07-12T21:01:07;18.33;58.02
70928;SHT31;58587;53.034;18.576;2022-07-12T21:03:33;18.30;58.18
70928;SHT31;58587;53.034;18.576;2022-07-12T21:05:59;18.25;59.03
70928;SHT31;58587;53.034;18.576;2022-07-12T21:08:24;18.29;58.90
70928;SHT31;58587;53.034;18.576;2022-07-12T21:10:51;18.30;59.35
70928;SHT31;58587;53.034;18.576;2022-07-12T21:13:17;18.30;59.12
70928;SHT31;58587;53.034;18.576;2022-07-12T21:15:43;18.29;59.94
70928;SHT31;58587;53.034;18.576;2022-07-12T21:18:08;18.26;60.45
70928;SHT31;58587;53.034;18.576;2022-07-12T21:20:33;18.17;61.26
70928;SHT31;58587;53.034;18.576;2022-07-12T21:22:59;18.20;61.65
70928;SHT31;58587;53.034;18.576;2022-07-12T21:25:24;18.19;61.84
70928;SHT31;58587;53.034;18.576;2022-07-12T21:27:49;18.17;62.06
70928;SHT31;58587;53.034;18.576;2022-07-12T21:30:15;18.23;62.27
70928;SHT31;58587;53.034;18.576;2022-07-12T21:32:41;18.17;62.58
70928;SHT31;58587;53.034;18.576;2022-07-12T21:35:07;18.03;63.68
70928;SHT31;58587;53.034;18.576;2022-07-12T21:37:35;18.00;63.83
